sensor_id;sensor_type;location;lat;lon;timestamp;P1;durP1;ratioP1;P2;durP2;ratioP2
49722;SDS011;43484;43.608;1.458;2023-12-22T00:01:09;37.90;;;4.72;;
49722;SDS011;43484;43.608;1.458;2023-12-22T00:03:38;39.22;;;4.80;;
49722;SDS011;43484;43.608;1.458;2023-12-22T00:06:05;38.15;;;6.68;;
49722;SDS011;43484;43.608;1.458;2023-12-22T00:08:32;28.92;;;5.10;;
49722;SDS011;43484;43.608;1.458;2023-12-22T00:10:58;46.58;;;5.20;;
49722;SDS011;43484;43.608;1.458;2023-12-22T00:13:25;35.90;;;4.50;;
49722;SDS011;43484;43.608;1.458;2023-12-22T00:15:52;36.33;;;5.03;;
49722;SDS011;43484;43.608;1.458;2023-12-22T00:18:18;36.53;;;6.13;;
49722;SDS011;43484;43.608;1.458;2023-12-22T00:20:45;28.10;;;4.25;;
49722;SDS011;43484;43.608;1.458;2023-12-22T00:23:12;30.33;;;4.57;;
49722;SDS011;43484;43.608;1.458;2023-12-22T00:25:38;34.53;;;4.38;;
49722;SDS011;43484;43.608;1.458;2023-12-22T00:28:05;39.50;;;6.35;;
49722;SDS011;43484;43.608;1.458;2023-12-22T00:30:31;42.13;;;5.47;;
49722;SDS011;43484;43.608;1.458;2023-12-22T00:32:58;39.88;;;4.55;;
49722;SDS011;43484;43.608;1.458;2023-12-22T00:35:25;46.15;;;5.90;;
49722;SDS011;43484;43.608;1.458;2023-12-22T00:37:51;38.50;;;5.30;;
49722;SDS011;43484;43.608;1.458;2023-12-22T00:40:19;31.98;;;4.57;;
49722;SDS011;43484;43.608;1.458;2023-12-22T00:42:46;45.15;;;6.35;;
49722;SDS011;43484;43.608;1.458;2023-12-22T00:45:12;43.38;;;6.07;;
49722;SDS011;43484;43.608;1.458;2023-12-22T00:47:39;47.17;;;6.47;;
49722;SDS011;43484;43.608;1.458;2023-12-22T00:50:06;43.08;;;5.90;;
49722;SDS011;43484;43.608;1.458;2023-12-22T00:52:34;44.00;;;5.88;;
49722;SDS011;43484;43.608;1.458;2023-12-22T00:55:01;33.83;;;4.85;;
49722;SDS011;43484;43.608;1.458;2023-12-22T00:57:28;56.47;;;5.82;;
49722;SDS011;43484;43.608;1.458;2023-12-22T00:59:54;46.35;;;5.85;;
49722;SDS011;43484;43.608;1.458;2023-12-22T01:02:21;39.33;;;5.63;;
49722;SDS011;43484;43.608;1.458;2023-12-22T01:04:48;32.63;;;5.38;;
49722;SDS011;43484;43.608;1.458;2023-12-22T01:07:14;35.42;;;4.07;;
49722;SDS011;43484;43.608;1.458;2023-12-22T01:09:42;30.08;;;4.03;;
49722;SDS011;43484;43.608;1.458;2023-12-22T01:12:08;35.33;;;4.90;;
49722;SDS011;43484;43.608;1.458;2023-12-22T01:14:37;28.92;;;4.43;;
49722;SDS011;43484;43.608;1.458;2023-12-22T01:17:04;32.85;;;3.65;;
49722;SDS011;43484;43.608;1.458;2023-12-22T01:19:31;29.30;;;3.88;;
49722;SDS011;43484;43.608;1.458;2023-12-22T01:21:57;28.60;;;3.53;;
49722;SDS011;43484;43.608;1.458;2023-12-22T01:24:24;30.92;;;4.18;;
49722;SDS011;43484;43.608;1.458;2023-12-22T01:26:50;35.75;;;4.95;;
49722;SDS011;43484;43.608;1.458;2023-12-22T01:29:17;30.42;;;3.30;;
49722;SDS011;43484;43.608;1.458;2023-12-22T01:31:43;28.83;;;4.45;;
49722;SDS011;43484;43.608;1.458;2023-12-22T01:34:10;24.23;;;3.35;;
49722;SDS011;43484;43.608;1.458;2023-12-22T01:36:38;37.55;;;3.33;;
49722;SDS011;43484;43.608;1.458;2023-12-22T01:39:04;28.33;;;3.90;;
49722;SDS011;43484;43.608;1.458;2023-12-22T01:41:34;27.92;;;3.72;;
49722;SDS011;43484;43.608;1.458;2023-12-22T01:44:00;35.42;;;4.45;;
49722;SDS011;43484;43.608;1.458;2023-12-22T01:46:27;22.65;;;3.30;;
49722;SDS011;43484;43.608;1.458;2023-12-22T01:48:54;19.30;;;3.58;;
49722;SDS011;43484;43.608;1.458;2023-12-22T01:51:21;23.17;;;2.78;;
49722;SDS011;43484;43.608;1.458;2023-12-22T01:53:47;17.00;;;2.20;;
49722;SDS011;43484;43.608;1.458;2023-12-22T01:56:14;21.30;;;2.65;;
49722;SDS011;43484;43.608;1.458;2023-12-22T01:58:41;21.75;;;2.90;;
49722;SDS011;43484;43.608;1.458;2023-12-22T02:01:08;20.88;;;2.95;;
49722;SDS011;43484;43.608;1.458;2023-12-22T02:03:35;16.13;;;1.67;;
49722;SDS011;43484;43.608;1.458;2023-12-22T02:06:03;21.90;;;1.63;;
49722;SDS011;43484;43.608;1.458;2023-12-22T02:08:32;14.70;;;1.77;;
49722;SDS011;43484;43.608;1.458;2023-12-22T02:11:00;12.27;;;1.50;;
49722;SDS011;43484;43.608;1.458;2023-12-22T02:13:27;17.25;;;2.65;;
49722;SDS011;43484;43.608;1.458;2023-12-22T02:16:04;13.77;;;1.50;;
49722;SDS011;43484;43.608;1.458;2023-12-22T02:18:39;16.15;;;1.92;;
49722;SDS011;43484;43.608;1.458;2023-12-22T02:21:09;15.02;;;1.65;;
49722;SDS011;43484;43.608;1.458;2023-12-22T02:23:36;23.30;;;2.03;;
49722;SDS011;43484;43.608;1.458;2023-12-22T02:26:25;8.90;;;1.13;;
49722;SDS011;43484;43.608;1.458;2023-12-22T02:28:59;8.90;;;1.55;;
49722;SDS011;43484;43.608;1.458;2023-12-22T02:31:29;14.50;;;1.15;;
49722;SDS011;43484;43.608;1.458;2023-12-22T02:34:12;5.57;;;1.30;;
49722;SDS011;43484;43.608;1.458;2023-12-22T02:36:45;12.70;;;1.52;;
49722;SDS011;43484;43.608;1.458;2023-12-22T02:39:14;10.70;;;1.45;;
49722;SDS011;43484;43.608;1.458;2023-12-22T02:41:43;7.45;;;1.00;;
49722;SDS011;43484;43.608;1.458;2023-12-22T02:44:10;9.95;;;1.10;;
49722;SDS011;43484;43.608;1.458;2023-12-22T02:46:36;9.20;;;1.27;;
49722;SDS011;43484;43.608;1.458;2023-12-22T02:49:03;10.35;;;1.00;;
49722;SDS011;43484;43.608;1.458;2023-12-22T02:51:30;11.73;;;1.15;;
49722;SDS011;43484;43.608;1.458;2023-12-22T02:53:56;6.72;;;0.75;;
49722;SDS011;43484;43.608;1.458;2023-12-22T02:56:23;8.30;;;1.23;;
49722;SDS011;43484;43.608;1.458;2023-12-22T02:58:49;11.27;;;1.75;;
49722;SDS011;43484;43.608;1.458;2023-12-22T03:01:16;8.88;;;0.80;;
49722;SDS011;43484;43.608;1.458;2023-12-22T03:03:43;8.45;;;0.82;;
49722;SDS011;43484;43.608;1.458;2023-12-22T03:06:10;6.55;;;0.85;;
49722;SDS011;43484;43.608;1.458;2023-12-22T03:08:36;7.90;;;1.25;;
49722;SDS011;43484;43.608;1.458;2023-12-22T03:11:03;7.15;;;1.50;;
49722;SDS011;43484;43.608;1.458;2023-12-22T03:13:29;11.23;;;1.67;;
49722;SDS011;43484;43.608;1.458;2023-12-22T03:15:56;11.18;;;1.02;;
49722;SDS011;43484;43.608;1.458;2023-12-22T03:18:23;6.88;;;0.90;;
49722;SDS011;43484;43.608;1.458;2023-12-22T03:20:49;5.60;;;0.70;;
49722;SDS011;43484;43.608;1.458;2023-12-22T03:23:16;6.82;;;0.50;;
49722;SDS011;43484;43.608;1.458;2023-12-22T03:25:43;6.57;;;0.52;;
49722;SDS011;43484;43.608;1.458;2023-12-22T03:28:09;5.22;;;0.47;;
49722;SDS011;43484;43.608;1.458;2023-12-22T03:30:36;2.20;;;0.50;;
49722;SDS011;43484;43.608;1.458;2023-12-22T03:33:04;3.78;;;0.93;;
49722;SDS011;43484;43.608;1.458;2023-12-22T03:35:32;2.85;;;0.70;;
49722;SDS011;43484;43.608;1.458;2023-12-22T03:37:59;4.10;;;1.08;;
49722;SDS011;43484;43.608;1.458;2023-12-22T03:40:27;5.80;;;1.10;;
49722;SDS011;43484;43.608;1.458;2023-12-22T03:42:53;3.88;;;0.80;;
49722;SDS011;43484;43.608;1.458;2023-12-22T03:45:20;5.95;;;0.63;;
49722;SDS011;43484;43.608;1.458;2023-12-22T03:47:47;3.65;;;0.60;;
49722;SDS011;43484;43.608;1.458;2023-12-22T03:50:14;1.08;;;0.38;;
49722;SDS011;43484;43.608;1.458;2023-12-22T03:52:41;2.15;;;0.45;;
49722;SDS011;43484;43.608;1.458;2023-12-22T03:55:08;6.13;;;0.70;;
49722;SDS011;43484;43.608;1.458;2023-12-22T03:57:34;5.05;;;1.60;;
49722;SDS011;43484;43.608;1.458;2023-12-22T04:00:01;3.80;;;0.50;;
49722;SDS011;43484;43.608;1.458;2023-12-22T04:02:28;3.28;;;0.47;;
49722;SDS011;43484;43.608;1.458;2023-12-22T04:04:54;2.58;;;0.65;;
49722;SDS011;43484;43.608;1.458;2023-12-22T04:07:21;5.38;;;0.43;;
49722;SDS011;43484;43.608;1.458;2023-12-22T04:09:48;4.32;;;0.40;;
49722;SDS011;43484;43.608;1.458;2023-12-22T04:12:14;4.10;;;0.70;;
49722;SDS011;43484;43.608;1.458;2023-12-22T04:14:41;3.55;;;0.47;;
49722;SDS011;43484;43.608;1.458;2023-12-22T04:17:08;1.67;;;0.32;;
49722;SDS011;43484;43.608;1.458;2023-12-22T04:19:35;3.78;;;0.68;;
49722;SDS011;43484;43.608;1.458;2023-12-22T04:22:02;4.05;;;0.40;;
49722;SDS011;43484;43.608;1.458;2023-12-22T04:24:29;2.60;;;0.45;;
49722;SDS011;43484;43.608;1.458;2023-12-22T04:26:56;3.60;;;0.35;;
49722;SDS011;43484;43.608;1.458;2023-12-22T04:29:22;9.57;;;0.55;;
49722;SDS011;43484;43.608;1.458;2023-12-22T04:31:49;2.58;;;0.30;;
49722;SDS011;43484;43.608;1.458;2023-12-22T04:34:15;6.03;;;0.82;;
49722;SDS011;43484;43.608;1.458;2023-12-22T04:36:42;2.42;;;0.20;;
49722;SDS011;43484;43.608;1.458;2023-12-22T04:39:09;3.53;;;0.30;;
49722;SDS011;43484;43.608;1.458;2023-12-22T04:41:35;1.27;;;0.20;;
49722;SDS011;43484;43.608;1.458;2023-12-22T04:44:02;1.88;;;0.22;;
49722;SDS011;43484;43.608;1.458;2023-12-22T04:46:29;3.20;;;0.60;;
49722;SDS011;43484;43.608;1.458;2023-12-22T04:48:56;4.82;;;0.32;;
49722;SDS011;43484;43.608;1.458;2023-12-22T04:51:23;1.60;;;0.38;;
49722;SDS011;43484;43.608;1.458;2023-12-22T04:53:50;1.95;;;0.30;;
49722;SDS011;43484;43.608;1.458;2023-12-22T04:56:17;2.58;;;0.30;;
49722;SDS011;43484;43.608;1.458;2023-12-22T04:58:43;1.85;;;0.20;;
49722;SDS011;43484;43.608;1.458;2023-12-22T05:01:10;2.97;;;0.20;;
49722;SDS011;43484;43.608;1.458;2023-12-22T05:03:37;1.55;;;0.30;;
49722;SDS011;43484;43.608;1.458;2023-12-22T05:06:03;3.38;;;0.40;;
49722;SDS011;43484;43.608;1.458;2023-12-22T05:08:30;0.68;;;0.20;;
49722;SDS011;43484;43.608;1.458;2023-12-22T05:10:57;1.88;;;0.20;;
49722;SDS011;43484;43.608;1.458;2023-12-22T05:13:24;0.40;;;0.10;;
49722;SDS011;43484;43.608;1.458;2023-12-22T05:15:51;1.15;;;0.20;;
49722;SDS011;43484;43.608;1.458;2023-12-22T05:18:17;1.75;;;0.22;;
49722;SDS011;43484;43.608;1.458;2023-12-22T05:20:44;0.57;;;0.20;;
49722;SDS011;43484;43.608;1.458;2023-12-22T05:23:11;1.20;;;0.20;;
49722;SDS011;43484;43.608;1.458;2023-12-22T05:25:38;2.03;;;0.30;;
49722;SDS011;43484;43.608;1.458;2023-12-22T05:28:05;1.05;;;0.20;;
49722;SDS011;43484;43.608;1.458;2023-12-22T05:30:31;0.40;;;0.10;;
49722;SDS011;43484;43.608;1.458;2023-12-22T05:32:58;0.65;;;0.32;;
49722;SDS011;43484;43.608;1.458;2023-12-22T05:35:24;0.68;;;0.30;;
49722;SDS011;43484;43.608;1.458;2023-12-22T05:37:51;1.45;;;0.30;;
49722;SDS011;43484;43.608;1.458;2023-12-22T05:40:19;0.22;;;0.17;;
49722;SDS011;43484;43.608;1.458;2023-12-22T05:42:45;1.45;;;0.10;;
49722;SDS011;43484;43.608;1.458;2023-12-22T05:45:12;1.67;;;0.13;;
49722;SDS011;43484;43.608;1.458;2023-12-22T05:47:40;1.33;;;0.20;;
49722;SDS011;43484;43.608;1.458;2023-12-22T05:50:07;2.63;;;0.30;;
49722;SDS011;43484;43.608;1.458;2023-12-22T05:52:34;1.42;;;0.20;;
49722;SDS011;43484;43.608;1.458;2023-12-22T05:55:01;1.20;;;0.15;;
49722;SDS011;43484;43.608;1.458;2023-12-22T05:57:28;3.65;;;0.50;;
49722;SDS011;43484;43.608;1.458;2023-12-22T05:59:54;0.52;;;0.20;;
49722;SDS011;43484;43.608;1.458;2023-12-22T06:02:21;0.60;;;0.10;;
49722;SDS011;43484;43.608;1.458;2023-12-22T06:04:48;3.67;;;0.30;;
49722;SDS011;43484;43.608;1.458;2023-12-22T06:07:15;2.05;;;0.50;;
49722;SDS011;43484;43.608;1.458;2023-12-22T06:09:41;0.75;;;0.20;;
49722;SDS011;43484;43.608;1.458;2023-12-22T06:12:08;2.38;;;0.30;;
49722;SDS011;43484;43.608;1.458;2023-12-22T06:14:39;0.40;;;0.20;;
49722;SDS011;43484;43.608;1.458;2023-12-22T06:17:05;0.32;;;0.20;;
49722;SDS011;43484;43.608;1.458;2023-12-22T06:19:32;2.58;;;0.20;;
49722;SDS011;43484;43.608;1.458;2023-12-22T06:21:58;2.15;;;0.20;;
49722;SDS011;43484;43.608;1.458;2023-12-22T06:24:26;1.10;;;0.30;;
49722;SDS011;43484;43.608;1.458;2023-12-22T06:26:53;0.47;;;0.20;;
49722;SDS011;43484;43.608;1.458;2023-12-22T06:29:20;0.60;;;0.10;;
49722;SDS011;43484;43.608;1.458;2023-12-22T06:31:47;1.15;;;0.30;;
49722;SDS011;43484;43.608;1.458;2023-12-22T06:34:17;1.70;;;0.30;;
49722;SDS011;43484;43.608;1.458;2023-12-22T06:36:44;2.17;;;0.30;;
49722;SDS011;43484;43.608;1.458;2023-12-22T06:39:10;0.65;;;0.20;;
49722;SDS011;43484;43.608;1.458;2023-12-22T06:41:37;0.85;;;0.28;;
49722;SDS011;43484;43.608;1.458;2023-12-22T06:44:04;2.42;;;0.20;;
49722;SDS011;43484;43.608;1.458;2023-12-22T06:46:30;3.35;;;0.20;;
49722;SDS011;43484;43.608;1.458;2023-12-22T06:48:57;0.57;;;0.20;;
49722;SDS011;43484;43.608;1.458;2023-12-22T06:51:30;1.25;;;0.80;;
49722;SDS011;43484;43.608;1.458;2023-12-22T06:53:57;3.58;;;0.10;;
49722;SDS011;43484;43.608;1.458;2023-12-22T06:56:28;0.85;;;0.17;;
49722;SDS011;43484;43.608;1.458;2023-12-22T06:58:57;1.95;;;0.30;;
49722;SDS011;43484;43.608;1.458;2023-12-22T07:01:27;0.70;;;0.30;;
49722;SDS011;43484;43.608;1.458;2023-12-22T07:03:55;0.95;;;0.10;;
49722;SDS011;43484;43.608;1.458;2023-12-22T07:06:22;1.92;;;0.30;;
49722;SDS011;43484;43.608;1.458;2023-12-22T07:11:41;1.50;;;0.20;;
49722;SDS011;43484;43.608;1.458;2023-12-22T07:14:09;0.93;;;0.22;;
49722;SDS011;43484;43.608;1.458;2023-12-22T07:16:37;0.98;;;0.30;;
49722;SDS011;43484;43.608;1.458;2023-12-22T07:19:04;2.13;;;0.22;;
49722;SDS011;43484;43.608;1.458;2023-12-22T07:21:31;1.58;;;0.25;;
49722;SDS011;43484;43.608;1.458;2023-12-22T07:23:58;2.53;;;0.30;;
49722;SDS011;43484;43.608;1.458;2023-12-22T07:26:26;1.50;;;0.28;;
49722;SDS011;43484;43.608;1.458;2023-12-22T07:28:53;0.52;;;0.28;;
49722;SDS011;43484;43.608;1.458;2023-12-22T07:31:21;1.85;;;0.30;;
49722;SDS011;43484;43.608;1.458;2023-12-22T07:33:47;0.93;;;0.35;;
49722;SDS011;43484;43.608;1.458;2023-12-22T07:36:15;0.80;;;0.22;;
49722;SDS011;43484;43.608;1.458;2023-12-22T07:38:41;3.33;;;0.80;;
49722;SDS011;43484;43.608;1.458;2023-12-22T07:41:08;1.52;;;0.70;;
49722;SDS011;43484;43.608;1.458;2023-12-22T07:43:37;4.32;;;0.40;;
49722;SDS011;43484;43.608;1.458;2023-12-22T07:46:04;0.80;;;0.43;;
49722;SDS011;43484;43.608;1.458;2023-12-22T07:48:31;1.17;;;0.73;;
49722;SDS011;43484;43.608;1.458;2023-12-22T07:50:58;0.95;;;0.68;;
49722;SDS011;43484;43.608;1.458;2023-12-22T07:53:25;1.42;;;0.82;;
49722;SDS011;43484;43.608;1.458;2023-12-22T07:55:52;2.35;;;0.65;;
49722;SDS011;43484;43.608;1.458;2023-12-22T07:58:18;2.05;;;1.15;;
49722;SDS011;43484;43.608;1.458;2023-12-22T08:00:45;1.25;;;0.30;;
49722;SDS011;43484;43.608;1.458;2023-12-22T08:03:12;1.05;;;0.30;;
49722;SDS011;43484;43.608;1.458;2023-12-22T08:05:39;1.88;;;0.28;;
49722;SDS011;43484;43.608;1.458;2023-12-22T08:08:06;0.73;;;0.20;;
49722;SDS011;43484;43.608;1.458;2023-12-22T08:10:33;1.88;;;0.28;;
49722;SDS011;43484;43.608;1.458;2023-12-22T08:12:59;0.22;;;0.15;;
49722;SDS011;43484;43.608;1.458;2023-12-22T08:15:26;1.40;;;0.30;;
49722;SDS011;43484;43.608;1.458;2023-12-22T08:18:02;0.82;;;0.17;;
49722;SDS011;43484;43.608;1.458;2023-12-22T08:20:29;0.55;;;0.22;;
49722;SDS011;43484;43.608;1.458;2023-12-22T08:23:02;2.85;;;0.30;;
49722;SDS011;43484;43.608;1.458;2023-12-22T08:25:35;2.10;;;0.22;;
49722;SDS011;43484;43.608;1.458;2023-12-22T08:28:02;3.35;;;0.40;;
49722;SDS011;43484;43.608;1.458;2023-12-22T08:30:29;2.75;;;0.22;;
49722;SDS011;43484;43.608;1.458;2023-12-22T08:32:55;3.15;;;0.40;;
49722;SDS011;43484;43.608;1.458;2023-12-22T08:35:22;1.00;;;0.20;;
49722;SDS011;43484;43.608;1.458;2023-12-22T08:37:49;1.30;;;0.20;;
49722;SDS011;43484;43.608;1.458;2023-12-22T08:40:16;0.52;;;0.30;;
49722;SDS011;43484;43.608;1.458;2023-12-22T08:42:43;1.92;;;0.40;;
49722;SDS011;43484;43.608;1.458;2023-12-22T08:45:10;2.45;;;0.30;;
49722;SDS011;43484;43.608;1.458;2023-12-22T08:47:36;3.17;;;0.40;;
49722;SDS011;43484;43.608;1.458;2023-12-22T08:50:03;0.88;;;0.40;;
49722;SDS011;43484;43.608;1.458;2023-12-22T08:52:31;0.82;;;0.20;;
49722;SDS011;43484;43.608;1.458;2023-12-22T08:54:57;1.55;;;0.30;;
49722;SDS011;43484;43.608;1.458;2023-12-22T08:57:24;2.83;;;0.40;;
49722;SDS011;43484;43.608;1.458;2023-12-22T08:59:51;1.55;;;0.30;;
49722;SDS011;43484;43.608;1.458;2023-12-22T09:02:18;1.35;;;0.20;;
49722;SDS011;43484;43.608;1.458;2023-12-22T09:04:44;0.80;;;0.20;;
49722;SDS011;43484;43.608;1.458;2023-12-22T09:07:11;1.58;;;0.30;;
49722;SDS011;43484;43.608;1.458;2023-12-22T09:09:38;1.95;;;0.30;;
49722;SDS011;43484;43.608;1.458;2023-12-22T09:12:05;0.60;;;0.25;;
49722;SDS011;43484;43.608;1.458;2023-12-22T09:14:32;1.45;;;0.45;;
49722;SDS011;43484;43.608;1.458;2023-12-22T09:16:58;3.15;;;0.30;;
49722;SDS011;43484;43.608;1.458;2023-12-22T09:19:25;4.15;;;0.47;;
49722;SDS011;43484;43.608;1.458;2023-12-22T09:21:53;0.57;;;0.30;;
49722;SDS011;43484;43.608;1.458;2023-12-22T09:24:19;2.08;;;0.30;;
49722;SDS011;43484;43.608;1.458;2023-12-22T09:26:46;1.90;;;0.30;;
49722;SDS011;43484;43.608;1.458;2023-12-22T09:29:13;1.88;;;0.50;;
49722;SDS011;43484;43.608;1.458;2023-12-22T09:31:40;2.70;;;0.47;;
49722;SDS011;43484;43.608;1.458;2023-12-22T09:34:07;1.60;;;0.30;;
49722;SDS011;43484;43.608;1.458;2023-12-22T09:36:34;0.45;;;0.20;;
49722;SDS011;43484;43.608;1.458;2023-12-22T09:39:01;0.60;;;0.30;;
49722;SDS011;43484;43.608;1.458;2023-12-22T09:41:28;0.68;;;0.22;;
49722;SDS011;43484;43.608;1.458;2023-12-22T09:43:55;1.08;;;0.68;;
49722;SDS011;43484;43.608;1.458;2023-12-22T09:46:24;0.32;;;0.30;;
49722;SDS011;43484;43.608;1.458;2023-12-22T09:48:53;2.40;;;1.50;;
49722;SDS011;43484;43.608;1.458;2023-12-22T09:51:20;5.72;;;1.10;;
49722;SDS011;43484;43.608;1.458;2023-12-22T09:53:47;5.10;;;0.40;;
49722;SDS011;43484;43.608;1.458;2023-12-22T09:56:15;3.50;;;1.45;;
49722;SDS011;43484;43.608;1.458;2023-12-22T09:58:43;1.08;;;0.30;;
49722;SDS011;43484;43.608;1.458;2023-12-22T10:01:12;0.95;;;0.30;;
49722;SDS011;43484;43.608;1.458;2023-12-22T10:03:39;2.45;;;1.25;;
49722;SDS011;43484;43.608;1.458;2023-12-22T10:06:09;1.20;;;0.40;;
49722;SDS011;43484;43.608;1.458;2023-12-22T10:08:36;3.15;;;0.35;;
49722;SDS011;43484;43.608;1.458;2023-12-22T10:11:03;0.95;;;0.20;;
49722;SDS011;43484;43.608;1.458;2023-12-22T10:13:32;2.00;;;1.00;;
49722;SDS011;43484;43.608;1.458;2023-12-22T10:16:02;3.15;;;1.42;;
49722;SDS011;43484;43.608;1.458;2023-12-22T10:18:32;1.05;;;0.30;;
49722;SDS011;43484;43.608;1.458;2023-12-22T10:21:00;3.55;;;1.08;;
49722;SDS011;43484;43.608;1.458;2023-12-22T10:23:27;0.68;;;0.30;;
49722;SDS011;43484;43.608;1.458;2023-12-22T10:25:54;1.63;;;0.35;;
49722;SDS011;43484;43.608;1.458;2023-12-22T10:28:23;1.98;;;0.20;;
49722;SDS011;43484;43.608;1.458;2023-12-22T10:30:51;3.30;;;2.17;;
49722;SDS011;43484;43.608;1.458;2023-12-22T10:33:19;0.88;;;0.57;;
49722;SDS011;43484;43.608;1.458;2023-12-22T10:35:46;3.53;;;2.65;;
49722;SDS011;43484;43.608;1.458;2023-12-22T10:38:14;4.72;;;4.20;;
49722;SDS011;43484;43.608;1.458;2023-12-22T10:40:45;1.00;;;0.30;;
49722;SDS011;43484;43.608;1.458;2023-12-22T10:43:12;1.13;;;0.43;;
49722;SDS011;43484;43.608;1.458;2023-12-22T10:45:39;3.53;;;0.63;;
49722;SDS011;43484;43.608;1.458;2023-12-22T10:48:06;0.50;;;0.30;;
49722;SDS011;43484;43.608;1.458;2023-12-22T10:50:33;1.27;;;0.20;;
49722;SDS011;43484;43.608;1.458;2023-12-22T10:53:01;3.35;;;0.75;;
49722;SDS011;43484;43.608;1.458;2023-12-22T10:55:28;0.50;;;0.20;;
49722;SDS011;43484;43.608;1.458;2023-12-22T10:57:54;0.38;;;0.17;;
49722;SDS011;43484;43.608;1.458;2023-12-22T11:00:21;1.23;;;0.20;;
49722;SDS011;43484;43.608;1.458;2023-12-22T11:02:49;3.03;;;0.40;;
49722;SDS011;43484;43.608;1.458;2023-12-22T11:05:25;0.43;;;0.20;;
49722;SDS011;43484;43.608;1.458;2023-12-22T11:07:54;2.88;;;0.98;;
49722;SDS011;43484;43.608;1.458;2023-12-22T11:10:21;3.40;;;0.50;;
49722;SDS011;43484;43.608;1.458;2023-12-22T11:12:48;2.03;;;0.30;;
49722;SDS011;43484;43.608;1.458;2023-12-22T11:15:15;1.23;;;0.60;;
49722;SDS011;43484;43.608;1.458;2023-12-22T11:17:44;1.10;;;0.52;;
49722;SDS011;43484;43.608;1.458;2023-12-22T11:20:14;2.30;;;0.55;;
49722;SDS011;43484;43.608;1.458;2023-12-22T11:22:42;2.85;;;0.52;;
49722;SDS011;43484;43.608;1.458;2023-12-22T11:25:09;1.20;;;0.60;;
49722;SDS011;43484;43.608;1.458;2023-12-22T11:27:40;1.77;;;0.40;;
49722;SDS011;43484;43.608;1.458;2023-12-22T11:30:10;0.63;;;0.52;;
49722;SDS011;43484;43.608;1.458;2023-12-22T11:32:39;2.60;;;1.00;;
49722;SDS011;43484;43.608;1.458;2023-12-22T11:35:06;0.75;;;0.60;;
49722;SDS011;43484;43.608;1.458;2023-12-22T11:37:37;2.83;;;0.98;;
49722;SDS011;43484;43.608;1.458;2023-12-22T11:40:05;6.07;;;2.35;;
49722;SDS011;43484;43.608;1.458;2023-12-22T11:42:41;2.25;;;0.60;;
49722;SDS011;43484;43.608;1.458;2023-12-22T11:45:13;6.60;;;3.13;;
49722;SDS011;43484;43.608;1.458;2023-12-22T11:47:42;2.50;;;0.50;;
49722;SDS011;43484;43.608;1.458;2023-12-22T11:50:09;2.15;;;0.40;;
49722;SDS011;43484;43.608;1.458;2023-12-22T11:52:39;1.20;;;0.50;;
49722;SDS011;43484;43.608;1.458;2023-12-22T11:55:06;1.75;;;0.60;;
49722;SDS011;43484;43.608;1.458;2023-12-22T11:57:35;16.95;;;9.27;;
49722;SDS011;43484;43.608;1.458;2023-12-22T12:00:08;1.80;;;0.55;;
49722;SDS011;43484;43.608;1.458;2023-12-22T12:02:37;1.58;;;0.82;;
49722;SDS011;43484;43.608;1.458;2023-12-22T12:05:07;2.45;;;0.70;;
49722;SDS011;43484;43.608;1.458;2023-12-22T12:13:10;0.77;;;0.40;;
49722;SDS011;43484;43.608;1.458;2023-12-22T12:15:38;1.70;;;1.00;;
49722;SDS011;43484;43.608;1.458;2023-12-22T12:18:05;1.38;;;0.50;;
49722;SDS011;43484;43.608;1.458;2023-12-22T12:20:32;2.10;;;0.50;;
49722;SDS011;43484;43.608;1.458;2023-12-22T12:23:02;2.10;;;0.60;;
49722;SDS011;43484;43.608;1.458;2023-12-22T12:25:29;0.95;;;0.68;;
49722;SDS011;43484;43.608;1.458;2023-12-22T12:28:03;2.25;;;0.60;;
49722;SDS011;43484;43.608;1.458;2023-12-22T12:30:32;2.97;;;0.80;;
49722;SDS011;43484;43.608;1.458;2023-12-22T12:33:05;2.60;;;1.00;;
49722;SDS011;43484;43.608;1.458;2023-12-22T12:35:33;8.35;;;2.50;;
49722;SDS011;43484;43.608;1.458;2023-12-22T12:38:05;4.43;;;1.17;;
49722;SDS011;43484;43.608;1.458;2023-12-22T12:40:32;4.32;;;1.30;;
49722;SDS011;43484;43.608;1.458;2023-12-22T12:43:01;2.92;;;0.57;;
49722;SDS011;43484;43.608;1.458;2023-12-22T12:45:29;6.55;;;2.28;;
49722;SDS011;43484;43.608;1.458;2023-12-22T12:47:59;3.58;;;1.63;;
49722;SDS011;43484;43.608;1.458;2023-12-22T12:50:29;0.80;;;0.68;;
49722;SDS011;43484;43.608;1.458;2023-12-22T12:52:58;2.60;;;0.95;;
49722;SDS011;43484;43.608;1.458;2023-12-22T12:55:26;0.60;;;0.40;;
49722;SDS011;43484;43.608;1.458;2023-12-22T12:57:53;0.75;;;0.30;;
49722;SDS011;43484;43.608;1.458;2023-12-22T13:00:32;2.15;;;0.40;;
49722;SDS011;43484;43.608;1.458;2023-12-22T13:03:02;0.95;;;0.30;;
49722;SDS011;43484;43.608;1.458;2023-12-22T13:05:31;4.47;;;0.40;;
49722;SDS011;43484;43.608;1.458;2023-12-22T13:08:08;1.25;;;0.30;;
49722;SDS011;43484;43.608;1.458;2023-12-22T13:10:37;0.82;;;0.20;;
49722;SDS011;43484;43.608;1.458;2023-12-22T13:13:04;1.05;;;0.50;;
49722;SDS011;43484;43.608;1.458;2023-12-22T13:15:31;1.10;;;0.30;;
49722;SDS011;43484;43.608;1.458;2023-12-22T13:17:58;1.00;;;0.20;;
49722;SDS011;43484;43.608;1.458;2023-12-22T13:20:25;0.82;;;0.30;;
49722;SDS011;43484;43.608;1.458;2023-12-22T13:22:53;1.95;;;0.28;;
49722;SDS011;43484;43.608;1.458;2023-12-22T13:25:21;1.90;;;0.40;;
49722;SDS011;43484;43.608;1.458;2023-12-22T13:27:50;1.02;;;0.40;;
49722;SDS011;43484;43.608;1.458;2023-12-22T13:30:37;1.10;;;0.52;;
49722;SDS011;43484;43.608;1.458;2023-12-22T13:33:08;0.68;;;0.20;;
49722;SDS011;43484;43.608;1.458;2023-12-22T13:35:35;6.40;;;1.30;;
49722;SDS011;43484;43.608;1.458;2023-12-22T13:38:07;1.55;;;0.60;;
49722;SDS011;43484;43.608;1.458;2023-12-22T13:40:35;1.00;;;0.43;;
49722;SDS011;43484;43.608;1.458;2023-12-22T13:43:04;4.60;;;2.45;;
49722;SDS011;43484;43.608;1.458;2023-12-22T13:45:33;0.73;;;0.52;;
49722;SDS011;43484;43.608;1.458;2023-12-22T13:48:00;1.13;;;0.40;;
49722;SDS011;43484;43.608;1.458;2023-12-22T13:50:27;1.95;;;0.40;;
49722;SDS011;43484;43.608;1.458;2023-12-22T13:52:54;1.15;;;0.35;;
49722;SDS011;43484;43.608;1.458;2023-12-22T13:55:21;1.73;;;1.42;;
49722;SDS011;43484;43.608;1.458;2023-12-22T13:57:58;0.85;;;0.70;;
49722;SDS011;43484;43.608;1.458;2023-12-22T14:00:26;0.65;;;0.22;;
49722;SDS011;43484;43.608;1.458;2023-12-22T14:02:55;1.15;;;0.50;;
49722;SDS011;43484;43.608;1.458;2023-12-22T14:05:22;0.47;;;0.32;;
49722;SDS011;43484;43.608;1.458;2023-12-22T14:07:49;0.30;;;0.20;;
49722;SDS011;43484;43.608;1.458;2023-12-22T14:10:17;0.57;;;0.20;;
49722;SDS011;43484;43.608;1.458;2023-12-22T14:12:43;1.77;;;0.25;;
49722;SDS011;43484;43.608;1.458;2023-12-22T14:15:10;0.22;;;0.20;;
49722;SDS011;43484;43.608;1.458;2023-12-22T14:17:38;0.57;;;0.17;;
49722;SDS011;43484;43.608;1.458;2023-12-22T14:20:05;0.60;;;0.30;;
49722;SDS011;43484;43.608;1.458;2023-12-22T14:22:34;3.85;;;0.38;;
49722;SDS011;43484;43.608;1.458;2023-12-22T14:25:01;0.47;;;0.30;;
49722;SDS011;43484;43.608;1.458;2023-12-22T14:27:27;0.82;;;0.40;;
49722;SDS011;43484;43.608;1.458;2023-12-22T14:29:54;0.82;;;0.30;;
49722;SDS011;43484;43.608;1.458;2023-12-22T14:32:21;2.15;;;0.38;;
49722;SDS011;43484;43.608;1.458;2023-12-22T14:34:49;3.08;;;0.50;;
49722;SDS011;43484;43.608;1.458;2023-12-22T14:37:16;2.20;;;0.30;;
49722;SDS011;43484;43.608;1.458;2023-12-22T14:39:47;0.75;;;0.22;;
49722;SDS011;43484;43.608;1.458;2023-12-22T14:42:14;1.35;;;0.30;;
49722;SDS011;43484;43.608;1.458;2023-12-22T14:44:41;1.25;;;0.43;;
49722;SDS011;43484;43.608;1.458;2023-12-22T14:47:07;4.20;;;0.40;;
49722;SDS011;43484;43.608;1.458;2023-12-22T14:49:39;1.25;;;0.45;;
49722;SDS011;43484;43.608;1.458;2023-12-22T14:52:06;1.27;;;0.52;;
49722;SDS011;43484;43.608;1.458;2023-12-22T14:54:33;14.63;;;5.45;;
49722;SDS011;43484;43.608;1.458;2023-12-22T14:56:59;29.88;;;10.68;;